Time;durP1;ratioP1;P1;durP2;ratioP2;P2;SDS_P1;SDS_P2;PMS_P1;PMS_P2;Temp;Humidity;BMP_temperature;BMP_pressure;BME280_temperature;BME280_humidity;BME280_pressure;Samples;Min_cycle;Max_cycle;Signal;HPM_P1;HPM_P2
2021/01/26 00:02:10;;;;;;;41.45;26.20;;;179.60;1817.60;;;;;;4937789;29;20034;-72
2021/01/26 00:04:36;;;;;;;40.67;26.67;;;179.40;1843.20;;;;;;4938088;29;20095;-73
2021/01/26 00:07:02;;;;;;;39.38;23.90;;;179.50;1843.20;;;;;;4937774;29;20479;-73
2021/01/26 00:09:27;;;;;;;33.47;19.25;;;179.80;1792.00;;;;;;4937966;29;20115;-73
2021/01/26 00:11:53;;;;;;;31.23;19.27;;;179.70;1792.00;;;;;;4937920;29;20032;-73
2021/01/26 00:14:19;;;;;;;37.78;20.17;;;179.60;1843.20;;;;;;4937683;29;20079;-73
2021/01/26 00:16:44;;;;;;;35.92;22.02;;;179.40;1843.20;;;;;;4937553;29;20478;-73
2021/01/26 00:19:10;;;;;;;55.65;29.42;;;179.20;1868.80;;;;;;4937769;29;20032;-73
2021/01/26 00:21:36;;;;;;;54.55;28.77;;;154.50;1894.40;;;;;;4937558;29;20103;-73
2021/01/26 00:24:02;;;;;;;50.10;30.30;;;154.40;1920.00;;;;;;4937634;29;20034;-73
2021/01/26 00:26:27;;;;;;;59.40;32.70;;;154.20;1920.00;;;;;;4936309;29;20490;-73
2021/01/26 00:28:53;;;;;;;50.85;30.45;;;154.10;1945.60;;;;;;4937503;29;20066;-73
2021/01/26 00:31:19;;;;;;;65.13;37.33;;;154.10;1971.20;;;;;;4937435;29;20027;-73
2021/01/26 00:33:44;;;;;;;64.63;38.42;;;154.20;1894.40;;;;;;4937308;29;20116;-73
2021/01/26 00:36:10;;;;;;;58.58;33.30;;;154.40;1894.40;;;;;;4937252;29;20035;-73
2021/01/26 00:38:36;;;;;;;40.10;26.30;;;154.10;1920.00;;;;;;4937464;29;20028;-73
2021/01/26 00:41:01;;;;;;;36.05;23.10;;;153.60;1996.80;;;;;;4936982;29;20471;-73
2021/01/26 00:43:27;;;;;;;58.45;33.85;;;154.00;1971.20;;;;;;4937474;29;20046;-74
2021/01/26 00:45:53;;;;;;;69.00;37.13;;;154.30;1920.00;;;;;;4937982;29;20043;-73
2021/01/26 00:48:18;;;;;;;73.25;43.30;;;179.20;1868.80;;;;;;4937777;29;20028;-73
2021/01/26 00:50:44;;;;;;;74.60;40.67;;;154.30;1894.40;;;;;;4938089;29;20035;-74
2021/01/26 00:53:10;;;;;;;69.80;40.33;;;153.90;1945.60;;;;;;4937725;29;20087;-74
2021/01/26 00:55:37;;;;;;;70.32;40.03;;;154.00;1945.60;;;;;;4937810;29;20407;-74
2021/01/26 00:58:03;;;;;;;73.90;42.55;;;154.20;1920.00;;;;;;4937412;29;20434;-73
2021/01/26 01:00:35;;;;;;;74.13;40.20;;;154.30;1920.00;;;;;;4937049;29;20027;-73
2021/01/26 01:03:01;;;;;;;67.13;39.17;;;179.40;1868.80;;;;;;4936709;29;20485;-70
2021/01/26 01:05:27;;;;;;;66.30;37.75;;;154.40;1894.40;;;;;;4936853;29;20032;-71
2021/01/26 01:07:53;;;;;;;63.90;36.47;;;154.20;1920.00;;;;;;4935243;29;20044;-72
2021/01/26 01:10:24;;;;;;;54.88;33.78;;;154.20;1920.00;;;;;;4936863;29;20439;-74
2021/01/26 01:12:50;;;;;;;57.20;33.38;;;153.60;1971.20;;;;;;4936605;29;20118;-73
2021/01/26 01:15:17;;;;;;;51.85;30.63;;;128.70;2022.40;;;;;;4936813;29;20120;-73
2021/01/26 01:17:43;;;;;;;48.20;26.77;;;128.70;2022.40;;;;;;4936560;29;20055;-73
2021/01/26 01:20:10;;;;;;;43.45;28.58;;;153.60;1996.80;;;;;;4936510;29;20032;-73
2021/01/26 01:22:36;;;;;;;39.03;24.70;;;153.90;1971.20;;;;;;4936415;29;20036;-74
2021/01/26 01:25:03;;;;;;;39.83;24.23;;;128.90;2048.00;;;;;;4936366;29;20058;-73
2021/01/26 01:27:29;;;;;;;33.08;21.23;;;153.80;1996.80;;;;;;4936304;29;20028;-74
2021/01/26 01:29:54;;;;;;;39.10;24.63;;;153.80;2022.40;;;;;;4936435;29;20024;-73
2021/01/26 01:32:20;;;;;;;36.75;23.88;;;153.70;1996.80;;;;;;4936342;29;20498;-73
2021/01/26 01:34:46;;;;;;;35.45;22.63;;;153.90;1971.20;;;;;;4936727;29;20471;-73
2021/01/26 01:37:11;;;;;;;32.15;21.30;;;154.10;1971.20;;;;;;4936325;29;20478;-73
2021/01/26 01:39:37;;;;;;;29.65;20.27;;;153.70;1996.80;;;;;;4936374;29;20023;-73
2021/01/26 01:42:08;;;;;;;31.75;21.40;;;128.90;2022.40;;;;;;4936221;29;20500;-72
2021/01/26 01:44:34;;;;;;;43.67;26.80;;;153.60;1996.80;;;;;;4936225;29;20030;-72
2021/01/26 01:47:00;;;;;;;39.45;26.25;;;128.80;2048.00;;;;;;4936069;29;20028;-71
2021/01/26 01:49:35;;;;;;;44.38;27.98;;;128.70;2073.60;;;;;;4936160;29;20039;-72
2021/01/26 01:52:00;;;;;;;43.75;28.15;;;154.10;2252.80;;;;;;4936159;29;20027;-73
2021/01/26 01:54:38;;;;;;;38.58;25.70;;;154.00;1971.20;;;;;;4936219;29;20024;-74
2021/01/26 01:57:08;;;;;;;35.85;24.05;;;154.40;1920.00;;;;;;4935808;29;20135;-72
2021/01/26 01:59:51;;;;;;;35.28;23.58;;;154.30;1945.60;;;;;;4934655;29;20435;-73
2021/01/26 02:02:17;;;;;;;38.25;26.00;;;154.30;1920.00;;;;;;4936025;29;20151;-73
2021/01/26 02:04:43;;;;;;;35.67;23.13;;;154.50;1894.40;;;;;;4936128;29;20079;-74
2021/01/26 02:07:11;;;;;;;37.67;23.50;;;179.40;1868.80;;;;;;4936157;29;20031;-73
2021/01/26 02:09:38;;;;;;;35.75;23.77;;;179.30;1868.80;;;;;;4936232;29;20024;-73
2021/01/26 02:12:06;;;;;;;37.65;21.80;;;154.00;1971.20;;;;;;4936486;29;20032;-72
2021/01/26 02:14:35;;;;;;;38.80;24.92;;;154.00;1971.20;;;;;;4935885;29;20474;-73
2021/01/26 02:17:13;;;;;;;36.17;24.15;;;154.00;1971.20;;;;;;4935995;29;20024;-71
2021/01/26 02:19:39;;;;;;;33.15;20.52;;;;;;;;;;4935991;29;20024;-73
2021/01/26 02:22:42;;;;;;;29.45;21.00;;;128.90;1971.20;;;;;;4939632;29;20054;-73
2021/01/26 02:25:28;;;;;;;28.45;19.17;;;128.80;2022.40;;;;;;4939892;29;20038;-74
2021/01/26 02:28:03;;;;;;;25.67;17.05;;;153.60;1971.20;;;;;;4939644;29;20031;-73
2021/01/26 02:30:49;;;;;;;22.10;15.82;;;;;;;;;;4939673;29;20034;-70
2021/01/26 02:33:57;;;;;;;23.90;16.20;;;153.90;1945.60;;;;;;4918444;29;20040;-73
2021/01/26 02:36:41;;;;;;;62.38;32.20;;;153.90;2201.60;;;;;;4918682;29;20028;-73
2021/01/26 02:39:16;;;;;;;57.88;33.40;;;;;;;;;;4918431;29;20056;-74
2021/01/26 02:42:00;;;;;;;41.72;26.45;;;179.60;1792.00;;;;;;4918118;29;20032;-72
2021/01/26 02:44:35;;;;;;;43.38;28.23;;;179.60;1817.60;;;;;;4918396;29;20483;-73
2021/01/26 02:47:24;;;;;;;44.55;26.92;;;179.50;1817.60;;;;;;4918332;29;20392;-73
2021/01/26 02:50:16;;;;;;;43.67;27.50;;;179.40;1817.60;;;;;;4915499;29;20520;-70
2021/01/26 02:53:06;;;;;;;22.45;15.55;;;154.50;1843.20;;;;;;4899465;29;20044;-73
2021/01/26 02:55:53;;;;;;;27.75;17.13;;;153.80;1996.80;;;;;;4899004;29;20049;-74
2021/01/26 02:58:31;;;;;;;27.85;18.95;;;153.60;1996.80;;;;;;4899033;29;20613;-73
2021/01/26 03:00:59;;;;;;;25.40;16.70;;;153.60;2022.40;;;;;;4899634;29;20126;-72
2021/01/26 03:03:48;;;;;;;22.75;15.00;;;128.90;1996.80;;;;;;4899100;29;20049;-70
2021/01/26 03:06:18;;;;;;;21.88;14.02;;;153.60;1971.20;;;;;;4899164;29;20029;-70
2021/01/26 03:09:11;;;;;;;16.98;12.02;;;154.00;1945.60;;;;;;4899172;29;20024;-74
2021/01/26 03:11:48;;;;;;;21.08;14.98;;;154.00;1945.60;;;;;;4880286;29;20073;-70
2021/01/26 03:14:37;;;;;;;19.08;15.07;;;154.10;1945.60;;;;;;4880443;29;20033;-73
2021/01/26 03:17:10;;;;;;;32.65;20.63;;;179.20;1894.40;;;;;;4880526;29;20052;-71
2021/01/26 03:19:37;;;;;;;26.95;18.52;;;179.30;1843.20;;;;;;4880119;29;20532;-70
2021/01/26 03:22:05;;;;;;;27.05;18.63;;;179.50;1843.20;;;;;;4880014;29;20385;-72
2021/01/26 03:24:37;;;;;;;26.45;19.08;;;179.50;1843.20;;;;;;4880019;29;20037;-74
2021/01/26 03:27:12;;;;;;;26.55;18.08;;;179.70;1792.00;;;;;;4880091;29;20245;-71
2021/01/26 03:29:41;;;;;;;30.45;20.63;;;179.90;1792.00;;;;;;4907572;29;20032;-70
2021/01/26 03:32:14;;;;;;;34.15;23.38;;;179.90;1792.00;;;;;;4938338;29;20036;-71
2021/01/26 03:34:39;;;;;;;38.05;25.30;;;180.10;1792.00;;;;;;4938577;29;20512;-72
2021/01/26 03:37:05;;;;;;;46.33;28.13;;;179.60;1843.20;;;;;;4938681;29;20114;-73
2021/01/26 03:39:31;;;;;;;37.35;27.08;;;179.40;1843.20;;;;;;4938541;29;20020;-73
2021/01/26 03:41:58;;;;;;;34.63;23.77;;;179.30;1843.20;;;;;;4938190;29;20107;-71
2021/01/26 03:44:24;;;;;;;35.38;23.33;;;179.40;1843.20;;;;;;4937151;29;20538;-73
2021/01/26 03:47:13;;;;;;;33.70;26.00;;;179.50;1843.20;;;;;;4938294;29;20107;-70
2021/01/26 03:50:31;;;;;;;32.88;20.85;;;179.70;1817.60;;;;;;4938456;29;20115;-73
2021/01/26 03:53:15;;;;;;;33.25;20.35;;;179.90;1817.60;;;;;;4917184;29;20119;-73
2021/01/26 03:55:47;;;;;;;31.20;21.33;;;180.00;1792.00;;;;;;4917230;29;20056;-74
2021/01/26 03:58:22;;;;;;;34.25;20.77;;;;;;;;;;4916984;29;20036;-74
2021/01/26 04:00:53;;;;;;;27.90;19.30;;;;;;;;;;4917024;29;20028;-71
2021/01/26 04:03:19;;;;;;;30.35;20.05;;;;;;;;;;4916830;28;20098;-72
2021/01/26 04:05:59;;;;;;;34.13;23.67;;;180.10;1792.00;;;;;;4916906;29;20438;-73
2021/01/26 04:08:34;;;;;;;32.88;22.15;;;179.70;1843.20;;;;;;4917030;29;20499;-70
2021/01/26 04:11:09;;;;;;;32.75;22.05;;;179.30;1868.80;;;;;;4916966;29;20044;-73
2021/01/26 04:13:56;;;;;;;31.38;21.15;;;154.10;1945.60;;;;;;4916824;29;20028;-70
2021/01/26 04:16:25;;;;;;;30.05;19.55;;;153.80;1945.60;;;;;;4916689;29;20048;-70
2021/01/26 04:18:53;;;;;;;29.92;19.52;;;153.80;1971.20;;;;;;4916767;29;20557;-70
2021/01/26 04:21:19;;;;;;;27.92;18.60;;;154.00;1945.60;;;;;;4916556;29;20411;-73
2021/01/26 04:23:52;;;;;;;28.33;19.08;;;154.10;1945.60;;;;;;4927816;29;20040;-70
2021/01/26 04:26:18;;;;;;;22.27;16.00;;;154.30;1894.40;;;;;;4937709;29;20054;-70
2021/01/26 04:28:49;;;;;;;25.65;16.98;;;179.30;1894.40;;;;;;4937397;29;20478;-70
2021/01/26 04:31:17;;;;;;;26.37;16.13;;;154.20;1894.40;;;;;;4937572;29;20139;-73
2021/01/26 04:33:43;;;;;;;29.00;18.05;;;154.00;1945.60;;;;;;4937549;29;20625;-73
2021/01/26 04:36:14;;;;;;;25.42;16.02;;;128.90;2022.40;;;;;;4937456;29;20111;-70
2021/01/26 04:38:40;;;;;;;19.30;12.50;;;128.80;2048.00;;;;;;4937484;29;20076;-71
2021/01/26 04:41:49;;;;;;;26.42;15.73;;;128.70;2048.00;;;;;;4937295;29;20408;-74
2021/01/26 04:44:26;;;;;;;26.10;16.17;;;128.90;2048.00;;;;;;4936407;29;20388;-73
2021/01/26 04:46:55;;;;;;;23.88;15.10;;;153.90;1971.20;;;;;;4937409;29;20016;-73
2021/01/26 04:49:33;;;;;;;19.42;13.13;;;153.90;1971.20;;;;;;4937477;29;20028;-73
2021/01/26 04:52:05;;;;;;;23.10;14.82;;;153.80;1971.20;;;;;;4936904;29;20497;-73
2021/01/26 04:54:42;;;;;;;24.70;16.73;;;153.60;1996.80;;;;;;4937082;29;20036;-73
2021/01/26 04:57:32;;;;;;;27.88;17.17;;;154.10;1945.60;;;;;;4936727;29;20106;-73
2021/01/26 05:00:00;;;;;;;24.70;16.85;;;179.20;1894.40;;;;;;4936929;29;20027;-72
2021/01/26 05:02:54;;;;;;;29.13;18.65;;;179.30;1894.40;;;;;;4936694;29;20035;-74
2021/01/26 05:05:22;;;;;;;40.13;24.70;;;154.00;1945.60;;;;;;4936905;29;20024;-74
2021/01/26 05:07:52;;;;;;;34.17;22.33;;;153.80;1996.80;;;;;;4936874;29;20051;-71
2021/01/26 05:10:21;;;;;;;45.78;28.35;;;153.60;2022.40;;;;;;4936708;29;20024;-70
2021/01/26 05:12:55;;;;;;;46.53;30.27;;;153.70;2022.40;;;;;;4936693;29;20364;-71
2021/01/26 05:15:26;;;;;;;46.47;29.52;;;154.00;1996.80;;;;;;4936611;29;20058;-72
2021/01/26 05:17:59;;;;;;;37.75;26.17;;;154.30;1920.00;;;;;;4936611;29;20083;-72
2021/01/26 05:20:35;;;;;;;32.65;22.73;;;153.80;1996.80;;;;;;4936569;29;20028;-74
2021/01/26 05:23:27;;;;;;;34.17;24.13;;;153.70;2022.40;;;;;;4936605;29;20502;-74
2021/01/26 05:25:54;;;;;;;27.70;19.35;;;154.00;1971.20;;;;;;4936956;29;20028;-73
2021/01/26 05:28:20;;;;;;;34.38;22.88;;;128.90;2048.00;;;;;;4936678;29;20131;-73
2021/01/26 05:31:05;;;;;;;35.58;23.58;;;128.90;2252.80;;;;;;4936480;29;20024;-70
2021/01/26 05:33:31;;;;;;;36.65;22.98;;;154.00;1996.80;;;;;;4936646;29;20015;-72
2021/01/26 05:36:00;;;;;;;31.88;21.58;;;153.90;1996.80;;;;;;4936244;29;20090;-70
2021/01/26 05:38:25;;;;;;;34.38;23.42;;;153.70;2022.40;;;;;;4936497;29;20024;-73
2021/01/26 05:41:00;;;;;;;36.90;24.98;;;128.90;2048.00;;;;;;4936332;29;20031;-71
2021/01/26 05:43:29;;;;;;;37.05;22.67;;;;;;;;;;4936246;29;20110;-73
2021/01/26 05:45:56;;;;;;;39.05;25.17;;;;;;;;;;4936358;29;20505;-73
2021/01/26 05:48:24;;;;;;;45.15;27.05;;;179.20;1868.80;;;;;;4936410;29;20390;-70
2021/01/26 05:50:51;;;;;;;50.45;31.15;;;154.50;1868.80;;;;;;4936114;29;20023;-70
2021/01/26 05:53:32;;;;;;;56.35;33.88;;;154.40;1894.40;;;;;;4936313;29;20034;-71
2021/01/26 05:56:25;;;;;;;57.75;36.55;;;154.20;1920.00;;;;;;4935339;29;20090;-72
2021/01/26 05:58:51;;;;;;;52.55;34.45;;;154.50;1894.40;;;;;;4934876;29;20064;-72
2021/01/26 06:01:22;;;;;;;44.25;28.60;;;154.20;1894.40;;;;;;4936116;29;20126;-70
2021/01/26 06:04:09;;;;;;;45.75;30.52;;;154.20;1920.00;;;;;;4936102;29;20036;-71
2021/01/26 06:06:57;;;;;;;39.55;25.70;;;154.30;1920.00;;;;;;4936212;29;20027;-73
2021/01/26 06:09:41;;;;;;;39.75;23.52;;;154.10;1920.00;;;;;;4935904;29;20114;-73
2021/01/26 06:12:08;;;;;;;51.00;30.38;;;;;;;;;;4936291;29;20032;-69
2021/01/26 06:14:34;;;;;;;45.13;27.63;;;154.00;1920.00;;;;;;4935849;29;20032;-72
2021/01/26 06:17:06;;;;;;;49.45;28.38;;;153.80;1920.00;;;;;;4935856;29;20466;-72
2021/01/26 06:19:33;;;;;;;58.03;31.77;;;128.90;1971.20;;;;;;4941375;28;20065;-73
2021/01/26 06:21:59;;;;;;;54.40;29.90;;;153.60;1945.60;;;;;;4946503;29;20031;-71
2021/01/26 06:24:27;;;;;;;56.45;33.28;;;153.90;1920.00;;;;;;4954882;28;20066;-71
2021/01/26 06:27:08;;;;;;;53.25;34.67;;;154.20;1894.40;;;;;;4951002;29;20117;-72
2021/01/26 06:29:40;;;;;;;52.30;33.83;;;154.30;1868.80;;;;;;4935682;29;20475;-70
2021/01/26 06:32:35;;;;;;;59.38;36.97;;;154.20;1868.80;;;;;;4940964;29;20051;-68
2021/01/26 06:35:18;;;;;;;45.00;27.40;;;154.10;1894.40;;;;;;4951622;29;20042;-70
2021/01/26 06:37:52;;;;;;;43.72;27.70;;;153.80;1920.00;;;;;;4951988;29;20127;-71
2021/01/26 06:40:34;;;;;;;44.60;27.67;;;153.70;1945.60;;;;;;4951641;29;20039;-68
2021/01/26 06:43:09;;;;;;;35.97;25.02;;;128.70;1971.20;;;;;;4951672;29;20039;-69
2021/01/26 06:45:49;;;;;;;32.55;23.52;;;128.50;2022.40;;;;;;4952013;29;20046;-69
2021/01/26 06:48:52;;;;;;;39.13;25.25;;;128.40;1996.80;;;;;;4951907;29;20031;-69
2021/01/26 06:51:27;;;;;;;40.47;27.98;;;128.90;1945.60;;;;;;4951864;29;20082;-68
2021/01/26 06:54:20;;;;;;;46.45;33.90;;;128.90;1971.20;;;;;;4951708;29;20031;-70
2021/01/26 06:57:10;;;;;;;44.17;26.77;;;128.40;2022.40;;;;;;4951755;29;20059;-72
2021/01/26 07:00:01;;;;;;;49.65;30.98;;;128.90;1996.80;;;;;;4952908;28;20489;-70
2021/01/26 07:02:59;;;;;;;48.17;32.30;;;128.80;1996.80;;;;;;4968067;28;20133;-69
2021/01/26 07:05:51;;;;;;;59.13;43.75;;;153.60;2252.80;;;;;;4970872;28;20030;-68
2021/01/26 07:08:48;;;;;;;51.55;33.75;;;153.90;1894.40;;;;;;4934428;29;20090;-70
2021/01/26 07:11:42;;;;;;;55.03;36.58;;;153.80;1894.40;;;;;;4917181;29;20096;-69
2021/01/26 07:14:23;;;;;;;50.15;33.15;;;153.90;1868.80;;;;;;4881786;29;20044;-70
2021/01/26 07:16:53;;;;;;;42.08;27.67;;;128.90;1920.00;;;;;;4879444;29;20116;-70
2021/01/26 07:19:34;;;;;;;38.65;26.48;;;153.60;1920.00;;;;;;4879434;29;20049;-70
2021/01/26 07:22:23;;;;;;;44.33;29.50;;;153.70;1920.00;;;;;;4879270;29;20427;-70
2021/01/26 07:25:01;;;;;;;45.42;29.35;;;154.00;1868.80;;;;;;4879634;29;20044;-70
2021/01/26 07:27:44;;;;;;;52.95;34.60;;;154.10;1843.20;;;;;;4879515;29;20092;-70
2021/01/26 07:30:32;;;;;;;50.13;35.50;;;154.10;1817.60;;;;;;4879153;29;20046;-68
2021/01/26 07:33:08;;;;;;;59.95;35.40;;;154.10;1843.20;;;;;;4893996;29;20164;-68
2021/01/26 07:35:51;;;;;;;54.95;36.72;;;153.90;1843.20;;;;;;4897863;29;20032;-69
2021/01/26 07:38:46;;;;;;;55.60;35.97;;;154.10;1817.60;;;;;;4897710;29;20041;-68
2021/01/26 07:41:17;;;;;;;51.80;33.58;;;154.20;1843.20;;;;;;4897479;29;20029;-68
2021/01/26 07:43:53;;;;;;;47.50;30.02;;;154.40;1843.20;;;;;;4897738;29;20060;-69
2021/01/26 07:47:05;;;;;;;41.97;28.40;;;154.30;1843.20;;;;;;4934604;29;20035;-68
2021/01/26 07:49:46;;;;;;;33.78;23.90;;;154.50;1868.80;;;;;;4932787;29;20050;-68
2021/01/26 07:52:15;;;;;;;37.75;25.92;;;154.40;1817.60;;;;;;4937400;29;20107;-68
2021/01/26 07:55:06;;;;;;;35.42;25.98;;;154.40;1792.00;;;;;;4936874;29;20031;-68
2021/01/26 07:57:48;;;;;;;40.13;27.90;;;179.30;1792.00;;;;;;4937446;29;20051;-68
2021/01/26 08:00:21;;;;;;;36.67;25.13;;;179.50;1740.80;;;;;;4937164;29;20059;-67
2021/01/26 08:02:54;;;;;;;35.03;24.77;;;179.70;1715.20;;;;;;4937264;29;20040;-70
2021/01/26 08:05:36;;;;;;;41.55;30.17;;;180.00;1689.60;;;;;;4937142;29;20020;-69
2021/01/26 08:08:04;;;;;;;41.67;31.42;;;205.00;1638.40;;;;;;4937047;29;20036;-68
2021/01/26 08:10:30;;;;;;;38.95;27.95;;;205.20;1638.40;;;;;;4935748;29;20024;-68
2021/01/26 08:12:56;;;;;;;35.88;26.67;;;205.20;1612.80;;;;;;4935792;29;20042;-68
2021/01/26 08:15:29;;;;;;;40.42;27.45;;;205.00;1664.00;;;;;;4937032;29;20057;-68
2021/01/26 08:17:55;;;;;;;25.02;18.38;;;205.40;1612.80;;;;;;4936079;29;20024;-69
2021/01/26 08:20:20;;;;;;;37.65;24.75;;;205.30;1587.20;;;;;;4937139;29;20386;-68
2021/01/26 08:22:55;;;;;;;35.63;27.05;;;205.40;1587.20;;;;;;4937082;29;20445;-68
2021/01/26 08:25:32;;;;;;;36.53;27.70;;;205.30;1587.20;;;;;;4936872;29;20060;-67
2021/01/26 08:28:20;;;;;;;41.85;29.60;;;205.20;1638.40;;;;;;4936961;29;20032;-68
2021/01/26 08:30:48;;;;;;;50.58;34.83;;;205.40;1587.20;;;;;;4933107;29;20386;-68
2021/01/26 08:33:18;;;;;;;37.50;28.08;;;205.50;1587.20;;;;;;4956064;28;20023;-68
2021/01/26 08:36:06;;;;;;;39.67;26.88;;;205.30;1587.20;;;;;;4955925;28;20048;-68
2021/01/26 08:39:15;;;;;;;37.15;26.65;;;205.40;1561.60;;;;;;4955830;28;20477;-70
2021/01/26 08:41:43;;;;;;;30.52;23.98;;;205.50;1587.20;;;;;;4972650;28;20043;-69
2021/01/26 08:44:30;;;;;;;38.85;26.63;;;205.60;1561.60;;;;;;4972674;28;20394;-69
2021/01/26 08:46:57;;;;;;;35.90;24.90;;;205.40;1587.20;;;;;;4972352;28;20051;-69
2021/01/26 08:49:31;;;;;;;34.75;24.35;;;205.40;1561.60;;;;;;4972667;28;20395;-69
2021/01/26 08:52:25;;;;;;;37.47;26.02;;;205.60;1561.60;;;;;;4954646;28;20058;-69
2021/01/26 08:54:55;;;;;;;37.17;27.13;;;230.40;1536.00;;;;;;4953058;29;20027;-70
2021/01/26 08:57:27;;;;;;;40.17;27.30;;;205.70;1536.00;;;;;;4953350;29;20134;-69
2021/01/26 08:59:57;;;;;;;32.17;22.70;;;205.40;1561.60;;;;;;4953026;29;20031;-68
2021/01/26 09:02:49;;;;;;;39.88;27.48;;;205.30;1536.00;;;;;;4969407;28;20043;-68
2021/01/26 09:05:34;;;;;;;40.05;26.75;;;205.50;1561.60;;;;;;4972313;28;20027;-68
2021/01/26 09:08:07;;;;;;;43.17;27.48;;;230.60;1510.40;;;;;;4972287;28;20105;-70
2021/01/26 09:10:49;;;;;;;32.35;23.92;;;230.90;1459.20;;;;;;4972200;28;20090;-68
2021/01/26 09:13:24;;;;;;;36.50;25.63;;;231.00;1459.20;;;;;;4972208;28;20031;-66
2021/01/26 09:15:53;;;;;;;34.63;24.25;;;231.20;1433.60;;;;;;4955914;28;20027;-68
2021/01/26 09:18:22;;;;;;;37.20;25.73;;;231.20;1408.00;;;;;;4939700;29;20495;-68
2021/01/26 09:20:52;;;;;;;34.03;25.55;;;231.30;1408.00;;;;;;4915123;29;20043;-67
2021/01/26 09:23:22;;;;;;;38.83;25.15;;;231.00;1459.20;;;;;;4914759;29;20047;-67
2021/01/26 09:25:48;;;;;;;40.38;30.00;;;230.90;1433.60;;;;;;4914520;29;20487;-67
2021/01/26 09:28:16;;;;;;;38.28;26.40;;;231.00;1433.60;;;;;;4914559;29;20040;-69
2021/01/26 09:30:47;;;;;;;32.97;21.33;;;256.00;1433.60;;;;;;4936141;29;20027;-68
2021/01/26 09:33:15;;;;;;;31.40;22.52;;;231.30;1382.40;;;;;;4952704;29;20114;-70
2021/01/26 09:35:46;;;;;;;35.65;23.13;;;231.20;1408.00;;;;;;4952556;28;20027;-67
2021/01/26 09:38:18;;;;;;;41.80;27.67;;;231.10;1408.00;;;;;;4952574;29;20131;-69
2021/01/26 09:40:47;;;;;;;45.63;29.27;;;231.30;1433.60;;;;;;4952702;29;20035;-69
2021/01/26 09:43:27;;;;;;;50.67;31.30;;;231.10;1433.60;;;;;;4952655;29;20035;-70
2021/01/26 09:46:02;;;;;;;46.97;29.25;;;230.90;1433.60;;;;;;4954225;29;20055;-70
2021/01/26 09:48:50;;;;;;;51.58;29.45;;;231.00;1408.00;;;;;;4953590;28;20075;-73
2021/01/26 09:51:26;;;;;;;47.65;32.53;;;230.60;1459.20;;;;;;4935512;28;20024;-70
2021/01/26 09:54:01;;;;;;;36.22;24.20;;;230.50;1484.80;;;;;;4935365;29;20078;-67
2021/01/26 09:56:29;;;;;;;46.28;33.17;;;205.60;1510.40;;;;;;4935033;29;20087;-67
2021/01/26 09:58:56;;;;;;;41.83;29.35;;;205.40;1561.60;;;;;;4935403;29;20024;-67
2021/01/26 10:01:23;;;;;;;33.78;23.83;;;205.50;1561.60;;;;;;4943209;28;20027;-69
2021/01/26 10:03:54;;;;;;;41.72;26.95;;;205.20;1536.00;;;;;;4954523;28;20089;-68
2021/01/26 10:06:20;;;;;;;43.55;28.33;;;205.40;1510.40;;;;;;4954270;28;20024;-68
2021/01/26 10:08:46;;;;;;;45.63;29.38;;;205.40;1510.40;;;;;;4954442;28;20038;-67
2021/01/26 10:11:18;;;;;;;47.53;31.98;;;205.60;1561.60;;;;;;4954225;28;20051;-67
2021/01/26 10:13:46;;;;;;;37.92;26.70;;;205.70;1510.40;;;;;;4954522;28;20027;-67
2021/01/26 10:16:30;;;;;;;43.50;29.55;;;230.40;1510.40;;;;;;4954395;28;20038;-67
2021/01/26 10:18:58;;;;;;;44.42;29.50;;;230.40;1510.40;;;;;;4954526;28;20023;-69
2021/01/26 10:21:30;;;;;;;39.80;28.40;;;205.50;1536.00;;;;;;4954178;28;20023;-69
2021/01/26 10:24:06;;;;;;;51.20;31.35;;;205.40;1536.00;;;;;;4953970;28;20020;-69
2021/01/26 10:26:39;;;;;;;45.38;30.38;;;205.60;1536.00;;;;;;4954290;28;20398;-69
2021/01/26 10:29:10;;;;;;;35.00;25.15;;;205.70;1536.00;;;;;;4954130;28;20023;-69
2021/01/26 10:31:55;;;;;;;42.80;28.95;;;205.60;1510.40;;;;;;4953985;28;20034;-69
2021/01/26 10:34:35;;;;;;;38.75;27.42;;;205.70;1510.40;;;;;;4954027;28;20486;-72
2021/01/26 10:37:09;;;;;;;38.42;26.80;;;205.50;1510.40;;;;;;4938384;28;20043;-71
2021/01/26 10:39:35;;;;;;;36.90;24.90;;;230.40;1510.40;;;;;;4935052;29;20028;-71
2021/01/26 10:42:03;;;;;;;40.30;29.80;;;205.70;1484.80;;;;;;4937162;29;20055;-70
2021/01/26 10:44:30;;;;;;;39.90;28.90;;;205.60;1510.40;;;;;;4937345;29;20091;-72
2021/01/26 10:46:56;;;;;;;42.70;30.45;;;230.40;1510.40;;;;;;4938395;29;20111;-70
2021/01/26 10:49:30;;;;;;;50.78;33.03;;;205.70;1510.40;;;;;;4938896;29;20047;-70
2021/01/26 10:51:59;;;;;;;42.30;26.73;;;230.50;1510.40;;;;;;4938555;29;20020;-69
2021/01/26 10:54:25;;;;;;;34.80;22.80;;;230.40;1459.20;;;;;;4938519;29;20031;-73
2021/01/26 10:56:51;;;;;;;45.55;33.10;;;230.50;1459.20;;;;;;4938309;29;20058;-70
2021/01/26 10:59:18;;;;;;;54.40;33.97;;;230.60;1484.80;;;;;;4938390;29;20409;-71
2021/01/26 11:01:43;;;;;;;43.55;28.90;;;230.90;1433.60;;;;;;4948773;29;20027;-71
2021/01/26 11:04:10;;;;;;;48.00;30.17;;;230.60;1433.60;;;;;;4940301;28;20043;-70
2021/01/26 11:06:36;;;;;;;64.90;34.38;;;205.60;1433.60;;;;;;4938292;29;20052;-71
2021/01/26 11:09:04;;;;;;;44.55;27.92;;;230.40;1433.60;;;;;;4938321;29;20058;-70
2021/01/26 11:11:30;;;;;;;50.65;31.23;;;205.70;1484.80;;;;;;4938361;29;20087;-71
2021/01/26 11:13:58;;;;;;;44.75;31.08;;;230.80;1459.20;;;;;;4938584;29;20171;-70
2021/01/26 11:16:25;;;;;;;46.75;31.10;;;231.00;1408.00;;;;;;4937840;29;20148;-69
2021/01/26 11:18:52;;;;;;;48.28;29.30;;;256.20;1331.20;;;;;;4938027;29;20047;-71
2021/01/26 11:21:18;;;;;;;49.53;31.48;;;256.20;1331.20;;;;;;4937933;29;20486;-69
2021/01/26 11:23:44;;;;;;;53.35;35.70;;;256.30;1331.20;;;;;;4937690;29;20042;-70
2021/01/26 11:26:14;;;;;;;48.10;29.65;;;256.10;1331.20;;;;;;4937370;29;20405;-70
2021/01/26 11:28:40;;;;;;;45.58;29.15;;;256.00;1356.80;;;;;;4937830;29;20034;-69
2021/01/26 11:31:06;;;;;;;44.30;28.83;;;256.10;1331.20;;;;;;4942397;29;20419;-73
2021/01/26 11:33:32;;;;;;;45.40;31.05;;;256.20;1305.60;;;;;;4937797;29;20055;-71
2021/01/26 11:36:00;;;;;;;49.50;33.15;;;256.50;1280.00;;;;;;4937811;29;20083;-72
2021/01/26 11:38:26;;;;;;;51.45;37.65;;;256.80;1254.40;;;;;;4937698;29;20111;-71
2021/01/26 11:40:52;;;;;;;52.08;37.00;;;281.60;1305.60;;;;;;4938087;29;20544;-68
2021/01/26 11:43:18;;;;;;;45.22;28.20;;;281.90;1280.00;;;;;;4937939;29;20059;-69
2021/01/26 11:45:44;;;;;;;52.63;33.10;;;281.70;1254.40;;;;;;4937441;29;20020;-70
2021/01/26 11:48:11;;;;;;;44.33;29.48;;;256.80;1280.00;;;;;;4937422;29;20028;-67
2021/01/26 11:50:37;;;;;;;36.35;25.25;;;256.40;1280.00;;;;;;4937399;29;20078;-67
2021/01/26 11:53:08;;;;;;;43.92;27.67;;;256.50;1280.00;;;;;;4936059;29;20035;-72
2021/01/26 11:55:34;;;;;;;46.53;29.70;;;256.80;1254.40;;;;;;4937123;29;20051;-73
2021/01/26 11:58:00;;;;;;;40.92;28.55;;;256.50;1280.00;;;;;;4936849;29;20086;-71
2021/01/26 12:00:30;;;;;;;37.60;26.48;;;256.70;1254.40;;;;;;4933747;29;20031;-68
2021/01/26 12:02:56;;;;;;;39.67;27.63;;;281.60;1254.40;;;;;;4938235;28;20043;-71
2021/01/26 12:05:24;;;;;;;42.55;27.67;;;282.00;1254.40;;;;;;4936868;29;20031;-75
2021/01/26 12:07:50;;;;;;;46.97;28.38;;;307.30;1203.20;;;;;;4937075;29;20020;-80
2021/01/26 12:10:17;;;;;;;39.75;29.35;;;307.80;1152.00;;;;;;4936922;29;20031;-71
2021/01/26 12:12:43;;;;;;;40.85;26.90;;;333.20;1152.00;;;;;;4937184;29;20051;-71
2021/01/26 12:15:12;;;;;;;37.42;26.85;;;332.90;1177.60;;;;;;4936595;29;20063;-71
2021/01/26 12:17:37;;;;;;;34.42;26.13;;;308.00;1126.40;;;;;;4936769;29;20038;-70
2021/01/26 12:20:04;;;;;;;37.38;26.88;;;282.30;1177.60;;;;;;4936801;29;20020;-67
2021/01/26 12:22:29;;;;;;;31.92;23.33;;;256.80;1228.80;;;;;;4936209;29;20028;-70
2021/01/26 12:24:55;;;;;;;32.08;24.13;;;256.40;1254.40;;;;;;4935637;29;20051;-68
2021/01/26 12:27:21;;;;;;;37.42;26.98;;;231.10;1305.60;;;;;;4936778;29;20031;-70
2021/01/26 12:29:46;;;;;;;37.70;26.30;;;230.80;1382.40;;;;;;4935373;29;20027;-70
2021/01/26 12:32:12;;;;;;;42.53;29.02;;;230.70;1356.80;;;;;;4946050;29;20028;-73
2021/01/26 12:34:38;;;;;;;40.75;28.15;;;230.50;1408.00;;;;;;4936611;29;20445;-71